Aviation Digital Data Service (ADDS)

Output produced by METARs form (0640 UTC 27 March 2017)
found at http://www.aviationweather.gov/adds/metars/
 
OLBA 270600Z 20003KT 160V230 9999 BKN080 17/11 Q1018
TAF OLBA 270400Z 2706/2812 VRB03KT 8000 FEW026 
     BECMG 2709/2712 30008KT FEW080 BKN200 
     BECMG 2718/2721 18008KT 170V230 SCT200 
     BECMG 2808/2810 24008KT SCT026